Time;durP1;ratioP1;P1;durP2;ratioP2;P2;SDS_P1;SDS_P2;PMS_P1;PMS_P2;Temp;Humidity;BMP_temperature;BMP_pressure;BME280_temperature;BME280_humidity;BME280_pressure;Samples;Min_cycle;Max_cycle;Signal;HPM_P1;HPM_P2
2021/03/14 00:00:15;;;;;;;4.85;1.95;;;;;;;16.36;36.12;100430.41;4911430;28;124390;-79
2021/03/14 00:02:41;;;;;;;3.40;1.80;;;;;;;16.32;36.21;100429.72;4911129;28;115308;-78
2021/03/14 00:05:08;;;;;;;2.92;1.90;;;;;;;16.33;36.20;100418.19;4912486;28;115196;-78
2021/03/14 00:07:34;;;;;;;3.55;1.73;;;;;;;16.32;36.30;100427.09;4910358;28;124128;-77
2021/03/14 00:10:00;;;;;;;4.00;1.50;;;;;;;16.35;36.08;100428.69;4910144;28;123734;-77
2021/03/14 00:12:26;;;;;;;2.67;1.67;;;;;;;16.35;36.17;100434.84;4912223;28;114172;-76
2021/03/14 00:14:52;;;;;;;2.67;1.73;;;;;;;16.32;36.15;100435.03;4912103;28;114403;-75
2021/03/14 00:17:18;;;;;;;4.63;1.92;;;;;;;16.33;36.15;100442.03;4911933;28;124427;-79
2021/03/14 00:19:44;;;;;;;2.40;1.65;;;;;;;16.33;36.13;100443.81;4911739;28;122876;-79
2021/03/14 00:22:10;;;;;;;3.38;1.73;;;;;;;16.33;36.25;100446.47;4912477;28;112916;-78
2021/03/14 00:24:36;;;;;;;3.97;1.77;;;;;;;16.32;36.29;100450.91;4912738;28;114059;-77
2021/03/14 00:27:03;;;;;;;4.25;1.92;;;;;;;16.30;36.33;100458.06;4909231;28;124109;-80
2021/03/14 00:29:29;;;;;;;5.40;2.28;;;;;;;16.29;36.14;100449.25;4911554;28;124553;-77
2021/03/14 00:31:55;;;;;;;6.30;2.20;;;;;;;16.28;36.16;100449.34;4910766;28;114880;-78
2021/03/14 00:34:21;;;;;;;4.72;2.17;;;;;;;16.27;36.28;100452.94;4911564;28;114384;-76
2021/03/14 00:36:47;;;;;;;4.93;1.98;;;;;;;16.27;36.15;100467.03;4911977;28;124705;-75
2021/03/14 00:39:13;;;;;;;4.93;2.08;;;;;;;16.26;36.21;100460.03;4911575;28;125647;-77
2021/03/14 00:41:39;;;;;;;7.07;2.13;;;;;;;16.25;36.16;100468.91;4913247;28;114512;-77
2021/03/14 00:44:05;;;;;;;3.90;2.20;;;;;;;16.26;36.23;100475.06;4927281;28;112648;-76
2021/03/14 00:46:32;;;;;;;3.45;1.73;;;;;;;16.25;36.01;100487.44;4911689;28;124472;-77
2021/03/14 00:48:58;;;;;;;4.30;2.17;;;;;;;16.25;36.17;100476.84;4909741;28;124178;-78
2021/03/14 00:51:24;;;;;;;5.93;2.30;;;;;;;16.24;36.06;100474.28;4894492;28;114656;-75
2021/03/14 00:53:52;;;;;;;4.65;2.38;;;;;;;16.24;36.24;100487.53;4910271;28;113850;-80
2021/03/14 00:56:24;;;;;;;6.18;2.25;;;;;;;16.23;36.33;100496.41;4910363;28;124211;-77
2021/03/14 00:58:50;;;;;;;5.05;2.20;;;;;;;16.23;36.29;100504.34;4894144;28;122895;-80
2021/03/14 01:01:18;;;;;;;2.45;1.73;;;;;;;16.23;36.28;100504.34;4910090;28;113601;-74
2021/03/14 01:03:45;;;;;;;5.80;1.92;;;;;;;16.23;36.40;100501.72;4926871;28;113337;-77
2021/03/14 01:06:11;;;;;;;5.90;2.10;;;;;;;16.22;36.26;100511.44;4894056;28;123357;-79
2021/03/14 01:08:38;;;;;;;4.57;2.15;;;;;;;16.21;36.34;100508.88;4925815;28;122824;-77
2021/03/14 01:11:04;;;;;;;6.70;1.80;;;;;;;16.21;36.52;100512.38;4910254;28;113345;-80
2021/03/14 01:14:01;;;;;;;7.50;2.25;;;;;;;16.21;36.44;100519.47;4921724;28;113117;-79
2021/03/14 01:16:35;;;;;;;;;;;;;;;16.20;36.58;100523.06;4910678;28;123471;-79
2021/03/14 01:19:01;;;;;;;6.63;2.00;;;;;;;16.19;36.51;100524.81;4893091;28;123330;-76
2021/03/14 01:21:27;;;;;;;7.78;2.40;;;;;;;16.20;36.88;100523.06;4911365;28;114038;-75
2021/03/14 01:23:53;;;;;;;5.57;2.20;;;;;;;16.20;36.54;100525.72;4925775;28;114061;-75
2021/03/14 01:26:19;;;;;;;4.30;2.30;;;;;;;16.19;36.58;100523.97;4911364;28;124136;-79
2021/03/14 01:28:48;;;;;;;4.70;1.77;;;;;;;16.19;36.59;100535.41;4910700;28;123960;-79
2021/03/14 01:31:14;;;;;;;7.50;2.28;;;;;;;16.19;36.71;100538.06;4910194;28;114518;-78
2021/03/14 01:33:40;;;;;;;3.05;2.03;;;;;;;16.17;36.67;100544.38;4910905;28;113799;-79
2021/03/14 01:36:07;;;;;;;3.78;2.10;;;;;;;16.19;36.56;100545.16;4910792;28;124405;-78
2021/03/14 01:38:34;;;;;;;5.70;2.20;;;;;;;16.19;36.56;100545.16;4908795;28;123980;-79
2021/03/14 01:41:01;;;;;;;4.07;2.03;;;;;;;16.16;36.68;100550.63;4909842;28;115773;-78
2021/03/14 01:43:30;;;;;;;3.95;2.15;;;;;;;16.18;36.72;100552.25;4910349;28;115194;-78
2021/03/14 01:45:56;;;;;;;4.15;2.30;;;;;;;16.19;36.74;100553.09;4910451;28;124008;-76
2021/03/14 01:48:25;;;;;;;5.00;1.88;;;;;;;16.16;36.66;100548.81;4898042;28;122921;-77
2021/03/14 01:50:52;;;;;;;5.38;2.08;;;;;;;16.16;36.65;100555.91;4891722;28;114016;-76
2021/03/14 01:53:19;;;;;;;4.95;2.05;;;;;;;16.14;36.59;100563.06;4891842;28;114409;-79
2021/03/14 01:55:47;;;;;;;5.50;2.05;;;;;;;16.16;36.79;100566.50;4891991;28;124077;-79
2021/03/14 01:58:13;;;;;;;4.13;1.95;;;;;;;16.15;36.74;100568.28;4892332;28;124927;-78
2021/03/14 02:00:40;;;;;;;3.55;1.90;;;;;;;16.13;36.75;100564.88;4894227;28;114216;-78
2021/03/14 02:03:06;;;;;;;3.65;2.00;;;;;;;16.15;36.76;100578.03;4894496;28;113912;-76
2021/03/14 02:05:32;;;;;;;5.55;2.28;;;;;;;16.13;36.69;100575.47;4894292;28;124128;-80
2021/03/14 02:07:58;;;;;;;3.38;2.22;;;;;;;16.13;36.88;100575.47;4894988;28;125247;-78
2021/03/14 02:10:30;;;;;;;4.63;1.77;;;;;;;16.13;36.69;100575.47;4895072;28;114433;-77
2021/03/14 02:13:20;;;;;;;3.35;1.77;;;;;;;16.13;36.83;100572.81;4893965;28;112169;-79
2021/03/14 02:15:58;;;;;;;4.10;2.33;;;;;;;16.10;36.86;100588.84;4895247;28;124289;-77
2021/03/14 02:18:26;;;;;;;3.75;2.10;;;;;;;16.12;36.89;100588.78;4909425;28;124200;-77
2021/03/14 02:20:52;;;;;;;4.63;1.90;;;;;;;16.10;36.82;100595.94;4894113;28;114286;-76
2021/03/14 02:23:36;;;;;;;5.07;1.95;;;;;;;16.13;36.91;100587.84;4895424;28;114224;-79
2021/03/14 02:26:08;;;;;;;4.20;2.10;;;;;;;16.12;36.63;100588.78;4893537;28;124621;-73
2021/03/14 02:28:38;;;;;;;4.82;2.33;;;;;;;16.12;36.77;100596.72;4894487;28;124947;-77
2021/03/14 02:31:08;;;;;;;7.25;2.78;;;;;;;16.12;36.82;100602.00;4893956;28;115457;-76
2021/03/14 02:33:38;;;;;;;5.03;2.10;;;;;;;16.11;36.84;100600.31;4894679;28;113917;-75
2021/03/14 02:36:07;;;;;;;4.13;2.15;;;;;;;16.13;36.77;100598.44;4894273;28;124230;-77
2021/03/14 02:38:35;;;;;;;2.85;1.77;;;;;;;16.13;36.84;100595.78;4893787;28;124392;-77
2021/03/14 02:41:01;;;;;;;3.95;2.20;;;;;;;16.15;36.79;100585.97;4894700;28;114332;-76
2021/03/14 02:43:28;;;;;;;2.92;1.90;;;;;;;16.15;36.72;100591.25;4894597;28;113740;-75
2021/03/14 02:45:55;;;;;;;4.38;1.77;;;;;;;16.15;36.77;100599.19;4892942;28;123000;-76
2021/03/14 02:48:22;;;;;;;8.23;2.53;;;;;;;16.14;36.89;100597.50;4903810;28;124060;-77
2021/03/14 02:50:49;;;;;;;7.18;2.03;;;;;;;16.12;36.76;100602.00;4913305;28;114534;-76
2021/03/14 02:53:17;;;;;;;5.15;2.10;;;;;;;16.11;36.82;100601.16;4913102;28;114064;-80
2021/03/14 02:55:44;;;;;;;4.72;1.95;;;;;;;16.12;36.92;100604.66;4912607;28;124207;-81
2021/03/14 02:58:12;;;;;;;4.10;2.03;;;;;;;16.11;36.77;100602.94;4913837;28;124012;-76
2021/03/14 03:00:39;;;;;;;5.03;2.30;;;;;;;16.10;36.84;100610.03;4915351;28;114064;-75
2021/03/14 03:03:06;;;;;;;5.97;2.13;;;;;;;16.12;36.78;100612.59;4924570;28;114865;-78
2021/03/14 03:05:33;;;;;;;4.15;1.83;;;;;;;16.12;36.71;100613.47;4923353;28;123472;-79
2021/03/14 03:08:01;;;;;;;3.95;1.80;;;;;;;16.10;36.61;100620.63;4916715;28;123569;-77
2021/03/14 03:10:30;;;;;;;5.15;2.08;;;;;;;16.09;36.88;100623.34;4926734;28;114803;-80
2021/03/14 03:12:58;;;;;;;6.40;1.95;;;;;;;16.12;36.82;100618.75;4912723;28;114186;-79
2021/03/14 03:15:26;;;;;;;3.88;1.90;;;;;;;16.13;36.77;100614.31;4912156;28;123909;-80
2021/03/14 03:17:52;;;;;;;6.55;2.00;;;;;;;16.13;36.75;100615.16;4912704;28;124226;-75
2021/03/14 03:20:19;;;;;;;3.97;1.80;;;;;;;16.11;36.85;100632.06;4927172;28;113969;-81
2021/03/14 03:22:47;;;;;;;2.92;1.70;;;;;;;16.10;36.85;100619.78;4912570;28;113951;-78
2021/03/14 03:25:14;;;;;;;3.95;1.80;;;;;;;16.08;36.43;100627.75;4911753;28;123717;-81
2021/03/14 03:27:40;;;;;;;5.53;1.90;;;;;;;16.12;36.77;100617.91;4911454;28;124358;-80
2021/03/14 03:30:09;;;;;;;4.30;1.88;;;;;;;16.12;36.70;100631.13;4913330;28;114176;-80
2021/03/14 03:32:36;;;;;;;5.78;1.90;;;;;;;16.10;36.80;100625.06;4913502;28;113167;-78
2021/03/14 03:35:05;;;;;;;7.13;1.92;;;;;;;16.08;36.86;100632.19;4912749;28;124113;-80
2021/03/14 03:37:31;;;;;;;5.90;1.70;;;;;;;16.09;36.72;100629.50;4913512;28;124133;-80
2021/03/14 03:39:57;;;;;;;6.30;2.05;;;;;;;16.12;36.78;100633.78;4912573;28;114220;-77
2021/03/14 03:42:26;;;;;;;6.35;2.45;;;;;;;16.13;36.78;100640.78;4910508;28;113830;-78
2021/03/14 03:44:54;;;;;;;5.05;2.15;;;;;;;16.12;36.83;100636.44;4910044;28;123924;-75
2021/03/14 03:47:22;;;;;;;7.20;2.28;;;;;;;16.12;36.77;100636.44;4909804;28;124063;-74
2021/03/14 03:49:52;;;;;;;6.20;2.03;;;;;;;16.10;36.77;100635.66;4912155;28;114282;-81
2021/03/14 03:52:20;;;;;;;6.47;2.25;;;;;;;16.10;36.84;100639.16;4910620;28;114679;-76
2021/03/14 03:54:51;;;;;;;7.28;1.90;;;;;;;16.13;36.78;100640.78;4912208;28;124447;-79
2021/03/14 03:57:19;;;;;;;4.85;1.95;;;;;;;16.11;36.61;100647.97;4911966;28;124637;-80
2021/03/14 03:59:47;;;;;;;5.30;1.80;;;;;;;16.10;36.83;100638.31;4912796;28;114652;-77
2021/03/14 04:02:15;;;;;;;7.00;2.17;;;;;;;16.11;36.77;100643.53;4912858;28;115536;-79
2021/03/14 04:04:42;;;;;;;7.65;2.13;;;;;;;16.11;36.90;100648.81;4910219;28;124012;-77
2021/03/14 04:07:10;;;;;;;6.20;1.92;;;;;;;16.10;36.92;100659.47;4911047;28;123834;-80
2021/03/14 04:09:37;;;;;;;6.97;1.95;;;;;;;16.10;36.92;100654.19;4910234;28;114297;-79
2021/03/14 04:12:04;;;;;;;6.35;2.22;;;;;;;16.13;36.87;100661.97;4910689;28;115170;-78
2021/03/14 04:14:32;;;;;;;6.30;2.00;;;;;;;16.11;36.89;100675.28;4910540;28;124007;-76
2021/03/14 04:16:59;;;;;;;4.55;2.13;;;;;;;16.07;36.88;100668.41;4911806;28;124403;-75
2021/03/14 04:19:29;;;;;;;4.60;2.10;;;;;;;16.09;36.99;100676.31;4910932;28;113057;-75
2021/03/14 04:21:57;;;;;;;3.53;1.98;;;;;;;16.11;36.96;100690.31;4908522;28;113006;-75
2021/03/14 04:24:26;;;;;;;3.75;1.88;;;;;;;16.11;36.94;100691.16;4909176;28;124391;-76
2021/03/14 04:26:53;;;;;;;5.78;1.98;;;;;;;16.11;36.87;100692.97;4909737;28;123879;-76
2021/03/14 04:29:21;;;;;;;4.32;2.05;;;;;;;16.09;36.85;100695.69;4911333;28;114612;-76
2021/03/14 04:31:49;;;;;;;11.43;2.65;;;;;;;16.09;37.14;100703.63;4912480;28;113955;-74
2021/03/14 04:34:19;;;;;;;4.57;2.00;;;;;;;16.06;37.03;100717.00;4911018;28;124136;-76
2021/03/14 04:36:47;;;;;;;5.55;2.03;;;;;;;16.06;36.64;100710.84;4911270;28;123992;-75
2021/03/14 04:39:14;;;;;;;8.13;1.98;;;;;;;16.06;36.96;100718.78;4912067;28;114145;-76
2021/03/14 04:41:42;;;;;;;5.10;2.00;;;;;;;16.04;36.83;100715.34;4911198;28;114410;-77
2021/03/14 04:44:09;;;;;;;3.38;1.73;;;;;;;16.05;36.79;100722.38;4912691;28;124807;-76
2021/03/14 04:46:37;;;;;;;5.20;2.03;;;;;;;16.04;36.97;100720.66;4912175;28;124112;-77
2021/03/14 04:49:04;;;;;;;6.80;2.17;;;;;;;16.03;36.84;100730.38;4895467;28;114115;-77
2021/03/14 04:51:34;;;;;;;3.45;2.15;;;;;;;16.03;36.71;100733.03;4892874;28;113848;-75
2021/03/14 04:54:00;;;;;;;3.05;1.70;;;;;;;16.03;36.73;100740.97;4892630;28;124609;-76
2021/03/14 04:56:27;;;;;;;3.70;2.80;;;;;;;16.04;36.67;100736.53;4892982;28;123809;-74
2021/03/14 04:58:56;;;;;;;7.03;2.40;;;;;;;16.01;36.76;100741.06;4891896;28;115860;-75
2021/03/14 05:01:23;;;;;;;3.60;1.92;;;;;;;16.01;36.84;100737.56;4892036;28;115270;-75
2021/03/14 05:03:55;;;;;;;2.75;1.63;;;;;;;16.02;36.80;100748.06;4891589;28;124417;-75
2021/03/14 05:06:21;;;;;;;8.13;2.50;;;;;;;16.00;37.00;100746.41;4892487;28;124111;-75
2021/03/14 05:08:49;;;;;;;5.03;1.85;;;;;;;16.01;36.95;100743.69;4906395;28;114836;-76
2021/03/14 05:11:18;;;;;;;4.15;2.05;;;;;;;16.03;36.82;100746.28;4889210;28;113986;-74
2021/03/14 05:13:46;;;;;;;7.88;2.00;;;;;;;16.02;36.79;100745.41;4891468;28;124092;-76
2021/03/14 05:16:16;;;;;;;4.15;1.67;;;;;;;16.04;37.05;100749.78;4892503;28;124593;-76
2021/03/14 05:18:44;;;;;;;3.58;1.80;;;;;;;16.06;36.99;100751.41;4891504;28;114369;-76
2021/03/14 05:21:11;;;;;;;4.18;1.70;;;;;;;16.04;36.86;100752.41;4892208;28;114276;-74
2021/03/14 05:23:38;;;;;;;4.07;1.77;;;;;;;16.05;37.15;100756.78;4890363;28;124558;-75
2021/03/14 05:26:08;;;;;;;4.88;1.92;;;;;;;16.07;37.09;100757.56;4874661;28;123369;-75
2021/03/14 05:28:36;;;;;;;5.80;2.30;;;;;;;16.06;37.20;100754.06;4891183;28;114397;-76
2021/03/14 05:31:03;;;;;;;4.13;1.83;;;;;;;16.07;37.25;100752.25;4904437;28;114063;-75
2021/03/14 05:33:29;;;;;;;4.32;1.80;;;;;;;16.08;37.25;100751.31;4889877;28;124373;-75
2021/03/14 05:35:55;;;;;;;4.88;2.00;;;;;;;16.02;37.40;100749.84;4897800;28;124575;-74
2021/03/14 05:38:21;;;;;;;2.20;1.70;;;;;;;16.01;37.55;100758.72;4893452;28;115082;-74
2021/03/14 05:40:47;;;;;;;5.03;2.03;;;;;;;15.99;37.84;100769.38;4894636;28;114052;-75
2021/03/14 05:43:14;;;;;;;3.95;1.63;;;;;;;16.01;37.72;100770.16;4893178;28;124634;-74
2021/03/14 05:45:40;;;;;;;5.38;1.55;;;;;;;16.03;37.82;100770.09;4893349;28;124219;-75
2021/03/14 05:48:06;;;;;;;2.25;1.50;;;;;;;16.02;37.78;100774.53;4902572;28;115712;-75
2021/03/14 05:50:32;;;;;;;4.47;1.65;;;;;;;16.01;37.81;100778.09;4912755;28;113816;-74
2021/03/14 05:52:59;;;;;;;3.13;1.60;;;;;;;16.04;37.79;100770.94;4914021;28;124760;-74
2021/03/14 05:55:27;;;;;;;2.40;1.48;;;;;;;16.00;37.74;100781.69;4913877;28;124551;-73
2021/03/14 05:57:54;;;;;;;3.63;1.42;;;;;;;15.98;37.82;100791.50;4928004;28;114079;-74
2021/03/14 06:00:28;;;;;;;5.05;1.50;;;;;;;16.00;37.65;100783.47;4912885;28;113951;-74
2021/03/14 06:02:59;;;;;;;3.50;1.85;;;;;;;16.00;37.94;100786.97;4913834;28;124289;-75
2021/03/14 06:05:27;;;;;;;2.78;1.35;;;;;;;16.02;37.79;100798.34;4929959;28;123917;-74
2021/03/14 06:07:54;;;;;;;2.67;1.65;;;;;;;16.02;37.99;100805.44;4928724;28;113916;-73
2021/03/14 06:10:21;;;;;;;2.42;1.40;;;;;;;16.04;37.97;100805.38;4913254;28;114004;-77
2021/03/14 06:12:47;;;;;;;2.22;1.30;;;;;;;16.02;37.91;100816.88;4913524;28;123888;-77
2021/03/14 06:15:14;;;;;;;3.70;1.95;;;;;;;16.04;37.88;100815.94;4912498;28;122799;-76
2021/03/14 06:17:41;;;;;;;4.70;1.60;;;;;;;16.06;37.92;100816.72;4914757;28;114738;-77
2021/03/14 06:20:09;;;;;;;3.95;1.80;;;;;;;16.03;37.91;100817.75;4913872;28;114316;-77
2021/03/14 06:22:35;;;;;;;2.03;1.50;;;;;;;16.06;37.97;100830.81;4913953;28;123657;-76
2021/03/14 06:25:02;;;;;;;2.88;1.58;;;;;;;16.02;37.86;100834.56;4912541;28;124320;-77
2021/03/14 06:27:37;;;;;;;3.60;1.80;;;;;;;16.02;37.99;100830.13;4917286;28;114109;-74
2021/03/14 06:30:15;;;;;;;4.70;1.80;;;;;;;16.04;38.24;100840.63;4918590;28;113838;-73
2021/03/14 06:33:00;;;;;;;5.40;2.03;;;;;;;16.04;38.21;100845.06;4915235;28;124394;-74
2021/03/14 06:35:41;;;;;;;3.85;1.95;;;;;;;16.04;38.65;100848.56;4919635;28;123890;-74
2021/03/14 06:38:31;;;;;;;2.92;1.40;;;;;;;16.05;38.48;100849.44;4931134;28;115255;-74
2021/03/14 06:41:03;;;;;;;2.25;1.70;;;;;;;16.06;38.93;100841.41;4924222;28;114838;-75
2021/03/14 06:43:36;;;;;;;3.72;1.83;;;;;;;16.07;38.55;100856.38;4913718;28;124017;-77
2021/03/14 06:46:04;;;;;;;6.43;1.65;;;;;;;16.08;38.75;100855.44;4910337;28;124179;-75
2021/03/14 06:48:30;;;;;;;3.45;1.42;;;;;;;16.09;38.63;100853.69;4900632;28;114305;-77
2021/03/14 06:50:56;;;;;;;4.53;1.98;;;;;;;16.09;38.56;100864.28;4913916;28;113928;-74
2021/03/14 06:53:24;;;;;;;7.32;1.60;;;;;;;16.09;38.57;100866.91;4912164;28;124883;-75
2021/03/14 06:56:03;;;;;;;6.32;1.60;;;;;;;16.07;38.33;100874.91;4912893;28;124161;-74
2021/03/14 06:58:31;;;;;;;3.88;1.85;;;;;;;16.07;38.49;100871.41;4913982;28;114450;-75
2021/03/14 07:01:18;;;;;;;2.72;1.50;;;;;;;16.08;38.42;100875.75;4913560;28;113982;-76
2021/03/14 07:03:52;;;;;;;9.13;1.65;;;;;;;16.05;38.34;100887.34;4912030;28;124577;-73
2021/03/14 07:06:25;;;;;;;3.53;1.70;;;;;;;16.06;38.48;100894.38;4926297;28;123999;-71
2021/03/14 07:08:53;;;;;;;2.73;1.67;;;;;;;16.13;38.14;100900.25;4907900;28;114888;-72
2021/03/14 07:11:43;;;;;;;2.05;1.45;;;;;;;16.11;38.32;100910.91;4915084;28;114202;-78
2021/03/14 07:14:11;;;;;;;2.10;1.60;;;;;;;16.16;38.23;100916.00;4900887;28;124626;-81
2021/03/14 07:16:46;;;;;;;3.72;1.77;;;;;;;16.16;38.14;100930.09;4912546;28;124042;-74
2021/03/14 07:19:20;;;;;;;4.40;2.28;;;;;;;16.18;38.13;100924.72;4928109;28;113775;-76
2021/03/14 07:21:56;;;;;;;3.15;1.63;;;;;;;16.18;37.91;100935.31;4913939;28;114278;-79
2021/03/14 07:24:29;;;;;;;3.80;1.95;;;;;;;16.17;38.03;100931.81;4913758;28;124449;-78
2021/03/14 07:26:56;;;;;;;3.20;1.80;;;;;;;16.17;38.08;100933.59;4914165;28;123971;-77
2021/03/14 07:29:24;;;;;;;4.00;2.10;;;;;;;16.16;38.05;100943.31;4929634;28;115657;-79
2021/03/14 07:31:50;;;;;;;5.15;1.98;;;;;;;16.15;38.05;100932.81;4915481;28;115033;-80
2021/03/14 07:34:17;;;;;;;5.93;1.73;;;;;;;16.17;37.94;100960.06;4914948;28;124146;-78
2021/03/14 07:36:45;;;;;;;3.83;1.60;;;;;;;16.18;38.09;100967.09;4913723;28;124936;-80
2021/03/14 07:39:11;;;;;;;4.78;1.63;;;;;;;16.17;38.09;100970.66;4916117;28;114166;-79
2021/03/14 07:41:37;;;;;;;6.05;1.85;;;;;;;16.18;38.06;100978.53;4915688;28;114086;-79
2021/03/14 07:44:06;;;;;;;3.47;1.70;;;;;;;16.19;37.95;100989.97;4917559;28;124819;-75
2021/03/14 07:46:32;;;;;;;7.38;2.28;;;;;;;16.19;37.90;100984.69;4923107;28;124245;-75
2021/03/14 07:49:00;;;;;;;5.55;1.80;;;;;;;16.19;38.00;100992.63;4923351;28;115292;-79
2021/03/14 07:51:28;;;;;;;2.75;1.35;;;;;;;16.19;38.06;101004.09;4918138;28;113981;-77
2021/03/14 07:54:01;;;;;;;2.35;1.40;;;;;;;16.20;38.13;101004.97;4912452;28;125333;-80
2021/03/14 07:56:47;;;;;;;3.90;1.60;;;;;;;16.21;38.28;101014.63;4927317;28;123771;-74
2021/03/14 07:59:13;;;;;;;6.32;2.17;;;;;;;16.22;38.87;101016.34;4911798;28;114956;-74
2021/03/14 08:01:40;;;;;;;6.32;1.90;;;;;;;16.23;38.76;101018.94;4911623;28;114003;-75
2021/03/14 08:04:29;;;;;;;4.32;1.60;;;;;;;16.27;38.92;101030.22;4911438;28;124183;-74
2021/03/14 08:06:55;;;;;;;7.15;2.08;;;;;;;16.27;38.76;101032.88;4910942;28;123864;-75
2021/03/14 08:09:41;;;;;;;8.13;2.40;;;;;;;16.29;38.61;101036.31;4914430;28;114335;-74
2021/03/14 08:12:21;;;;;;;7.32;2.45;;;;;;;16.28;38.68;101038.09;4914181;28;112875;-75
2021/03/14 08:14:49;;;;;;;5.72;2.00;;;;;;;16.28;38.72;101048.69;4910788;28;124464;-74
2021/03/14 08:17:25;;;;;;;3.00;2.10;;;;;;;16.27;38.53;101046.97;4914377;28;124173;-75
2021/03/14 08:19:52;;;;;;;4.13;1.80;;;;;;;16.28;38.59;101056.66;4912802;28;114838;-74
2021/03/14 08:22:36;;;;;;;7.05;2.03;;;;;;;16.27;38.37;101067.31;4914389;28;115704;-75
2021/03/14 08:25:22;;;;;;;4.78;2.00;;;;;;;16.26;38.60;101073.53;4928442;28;123279;-74
2021/03/14 08:27:54;;;;;;;4.63;1.75;;;;;;;16.27;38.40;101073.47;4928292;28;123914;-76
2021/03/14 08:30:30;;;;;;;4.03;1.85;;;;;;;16.27;38.37;101089.34;4912105;28;114335;-74
2021/03/14 08:33:18;;;;;;;4.65;2.20;;;;;;;16.28;38.31;101084.91;4914602;28;114336;-74
2021/03/14 08:35:46;;;;;;;4.38;1.90;;;;;;;16.30;38.17;101088.34;4928833;28;123179;-74
2021/03/14 08:38:27;;;;;;;6.00;1.90;;;;;;;16.31;38.25;101084.81;4914419;28;124674;-74
2021/03/14 08:41:35;;;;;;;4.40;1.95;;;;;;;16.33;38.21;101093.53;4913140;28;113739;-74
2021/03/14 08:44:06;;;;;;;7.53;2.13;;;;;;;16.35;38.32;101094.34;4913451;28;113528;-74
2021/03/14 08:46:46;;;;;;;3.30;1.67;;;;;;;16.36;38.28;101104.00;4927869;28;123603;-73
2021/03/14 08:49:14;;;;;;;3.67;1.73;;;;;;;16.36;38.25;101111.94;4928412;28;123561;-73
2021/03/14 08:51:41;;;;;;;5.22;1.73;;;;;;;16.39;38.30;101109.16;4929063;28;114178;-74
2021/03/14 08:54:08;;;;;;;4.47;2.10;;;;;;;16.47;38.08;101111.47;4913169;28;113043;-74
2021/03/14 08:56:38;;;;;;;6.13;2.30;;;;;;;16.54;38.00;101121.75;4912258;28;123403;-73
2021/03/14 08:59:05;;;;;;;4.13;1.90;;;;;;;16.58;37.78;101123.31;4912364;28;122900;-73
2021/03/14 09:01:32;;;;;;;3.45;1.63;;;;;;;16.59;37.75;101135.66;4928752;28;113473;-73
2021/03/14 09:04:18;;;;;;;3.55;1.90;;;;;;;16.55;37.98;101135.84;4913256;28;113812;-73
2021/03/14 09:07:04;;;;;;;5.80;1.73;;;;;;;16.54;38.00;101140.31;4928641;28;123021;-74
2021/03/14 09:09:31;;;;;;;4.57;1.70;;;;;;;16.56;37.91;101140.22;4913195;28;122998;-74
2021/03/14 09:12:20;;;;;;;6.25;2.33;;;;;;;16.56;37.89;101143.75;4931500;28;114424;-73
2021/03/14 09:15:09;;;;;;;4.00;1.60;;;;;;;16.54;37.89;101148.25;4931983;28;114051;-80
2021/03/14 09:17:43;;;;;;;3.90;1.70;;;;;;;16.56;37.88;101150.81;4931383;28;123197;-79
2021/03/14 09:20:10;;;;;;;3.30;2.05;;;;;;;16.55;37.94;101157.91;4916086;28;122910;-80
2021/03/14 09:22:39;;;;;;;5.78;1.70;;;;;;;16.54;37.88;101160.63;4915591;28;113414;-81
2021/03/14 09:25:17;;;;;;;5.90;1.85;;;;;;;16.53;37.99;101167.69;4931909;28;113183;-76
2021/03/14 09:27:46;;;;;;;3.88;1.85;;;;;;;16.55;37.99;101171.16;4899525;28;123494;-79
2021/03/14 09:30:18;;;;;;;4.03;1.70;;;;;;;16.58;37.96;101167.50;4915757;28;122959;-74
2021/03/14 09:32:48;;;;;;;2.90;1.55;;;;;;;16.59;37.63;101171.88;4931875;28;113230;-80
2021/03/14 09:35:26;;;;;;;2.40;1.52;;;;;;;16.60;38.05;101170.94;4900422;28;113779;-76
2021/03/14 09:38:00;;;;;;;3.15;1.60;;;;;;;16.62;37.87;101182.34;4915264;28;122459;-81
2021/03/14 09:40:31;;;;;;;4.25;1.90;;;;;;;16.67;37.86;101182.16;4916918;28;123891;-81
2021/03/14 09:43:15;;;;;;;2.90;1.65;;;;;;;16.72;37.82;101188.13;4917503;28;114474;-79
2021/03/14 09:46:01;;;;;;;4.57;1.90;;;;;;;16.72;37.78;101186.34;4917954;28;114768;-80
2021/03/14 09:48:34;;;;;;;3.13;1.65;;;;;;;16.73;37.76;101179.25;4916086;28;123209;-79
2021/03/14 09:51:06;;;;;;;4.28;1.75;;;;;;;16.77;37.75;101188.81;4916231;28;123671;-79
2021/03/14 09:53:36;;;;;;;3.92;1.80;;;;;;;16.83;37.55;101186.75;4916398;28;114287;-80
2021/03/14 09:56:04;;;;;;;6.00;2.08;;;;;;;16.93;37.48;101194.28;4915564;28;114140;-81
2021/03/14 09:58:49;;;;;;;4.00;2.15;;;;;;;16.96;37.56;101188.84;4916780;28;124099;-79
2021/03/14 10:01:16;;;;;;;6.97;1.80;;;;;;;16.99;37.35;101199.31;4917486;28;124032;-80
2021/03/14 10:03:42;;;;;;;3.70;1.80;;;;;;;17.02;37.35;101202.72;4916972;28;115354;-79
2021/03/14 10:06:15;;;;;;;3.22;1.90;;;;;;;17.02;37.44;101202.72;4915105;28;113933;-78
2021/03/14 10:08:53;;;;;;;3.97;1.80;;;;;;;17.04;37.49;101205.28;4914901;28;123145;-74
2021/03/14 10:11:19;;;;;;;5.07;2.20;;;;;;;17.02;37.15;101209.81;4931141;28;124264;-74
2021/03/14 10:13:55;;;;;;;2.55;1.85;;;;;;;16.93;37.63;101211.06;4930349;28;113353;-74
2021/03/14 10:16:24;;;;;;;2.80;1.80;;;;;;;17.02;37.46;101225.72;4899328;28;113589;-76
2021/03/14 10:18:58;;;;;;;2.90;1.70;;;;;;;17.05;37.37;101222.91;4930469;28;123110;-74
2021/03/14 10:21:27;;;;;;;3.28;1.60;;;;;;;17.08;37.36;101226.28;4931479;28;123223;-74
2021/03/14 10:24:24;;;;;;;3.42;1.80;;;;;;;17.09;37.47;101225.34;4914942;28;113616;-75
2021/03/14 10:27:04;;;;;;;5.35;2.03;;;;;;;17.08;37.46;101231.59;4915727;28;114856;-75
2021/03/14 10:29:41;;;;;;;3.17;1.95;;;;;;;17.22;37.19;101228.34;4913965;28;123900;-75
2021/03/14 10:32:19;;;;;;;4.03;1.70;;;;;;;17.27;37.04;101234.28;4930415;28;123336;-75
2021/03/14 10:35:04;;;;;;;4.72;1.85;;;;;;;17.29;37.12;101236.88;4915115;28;113658;-74
2021/03/14 10:37:36;;;;;;;5.40;2.10;;;;;;;17.28;37.17;101256.38;4915868;28;113137;-74
2021/03/14 10:40:20;;;;;;;3.78;1.98;;;;;;;17.36;37.14;101259.53;4916774;28;124055;-78
2021/03/14 10:42:49;;;;;;;5.20;2.00;;;;;;;17.34;37.11;101261.41;4916346;28;123757;-81
2021/03/14 10:45:23;;;;;;;5.00;2.00;;;;;;;17.35;37.19;101266.66;4915725;28;113526;-77
2021/03/14 10:48:01;;;;;;;4.65;2.10;;;;;;;17.35;37.23;101266.66;4924919;28;113123;-76
2021/03/14 10:50:34;;;;;;;6.18;2.15;;;;;;;17.35;37.08;101273.75;4896131;28;123474;-75
2021/03/14 10:53:16;;;;;;;3.30;1.67;;;;;;;17.30;37.21;101275.72;4897495;28;122829;-76
2021/03/14 10:55:45;;;;;;;4.40;1.70;;;;;;;17.31;37.25;101277.44;4896596;28;115119;-76
2021/03/14 10:58:15;;;;;;;5.00;2.22;;;;;;;17.25;37.38;101283.91;4898323;28;115426;-76
2021/03/14 11:00:49;;;;;;;4.70;1.92;;;;;;;17.34;37.09;101283.50;4911974;28;122987;-74
2021/03/14 11:03:26;;;;;;;3.78;1.83;;;;;;;17.37;37.18;101293.09;4913627;28;123954;-79
2021/03/14 11:06:07;;;;;;;5.25;2.10;;;;;;;17.41;37.11;101290.22;4899677;28;114251;-78
2021/03/14 11:08:51;;;;;;;3.58;1.80;;;;;;;17.42;37.17;101289.31;4913995;28;112867;-76
2021/03/14 11:11:27;;;;;;;7.28;2.45;;;;;;;17.36;36.91;101294.91;4901718;28;122876;-75
2021/03/14 11:13:58;;;;;;;5.63;1.98;;;;;;;17.33;37.22;101291.53;4918169;28;122733;-78
2021/03/14 11:16:43;;;;;;;5.47;2.05;;;;;;;17.33;37.12;101297.69;4921339;28;113990;-78
2021/03/14 11:19:18;;;;;;;6.20;2.08;;;;;;;17.48;37.05;101289.97;4920871;28;113382;-78
2021/03/14 11:21:50;;;;;;;4.38;2.42;;;;;;;17.60;36.79;101298.25;4920985;28;124721;-77
2021/03/14 11:24:19;;;;;;;5.35;2.00;;;;;;;17.51;36.92;101297.78;4920677;28;124418;-77
2021/03/14 11:26:48;;;;;;;4.88;1.90;;;;;;;17.51;36.90;101300.44;4920880;28;113585;-77
2021/03/14 11:29:14;;;;;;;5.07;2.10;;;;;;;17.50;36.93;101304.03;4935985;28;113264;-76
2021/03/14 11:32:04;;;;;;;3.55;2.20;;;;;;;17.48;37.00;101303.25;4919794;28;124312;-77